createdAt,value
2019-02-07T00:00:30.244Z,43.17
2019-02-07T00:02:58.655Z,44.13
2019-02-07T00:05:27.052Z,45.43
2019-02-07T00:07:55.478Z,45.70
2019-02-07T00:10:23.883Z,44.03
2019-02-07T00:12:52.288Z,44.70
2019-02-07T00:15:20.699Z,43.52
2019-02-07T00:17:49.115Z,44.38
2019-02-07T00:20:19.323Z,45.40
2019-02-07T00:22:47.756Z,43.40
2019-02-07T00:25:16.177Z,45.12
2019-02-07T00:27:44.824Z,43.35
2019-02-07T00:30:16.953Z,41.60
2019-02-07T00:32:45.444Z,42.90
2019-02-07T00:35:14.304Z,41.73
2019-02-07T00:37:42.712Z,40.77
2019-02-07T00:40:19.174Z,41.48
2019-02-07T00:42:48.016Z,41.87
2019-02-07T00:45:19.863Z,42.40
2019-02-07T00:47:49.095Z,41.65
2019-02-07T00:50:18.340Z,41.75
2019-02-07T00:52:46.808Z,41.23
2019-02-07T00:55:17.428Z,37.65
2019-02-07T00:57:46.719Z,36.68
2019-02-07T01:00:25.796Z,36.55
2019-02-07T01:02:54.560Z,36.63
2019-02-07T01:05:23.379Z,36.85
2019-02-07T01:07:52.236Z,34.63
2019-02-07T01:10:26.680Z,33.60
2019-02-07T01:12:55.181Z,35.52
2019-02-07T01:15:24.079Z,33.45
2019-02-07T01:17:52.542Z,35.30
2019-02-07T01:20:21.085Z,34.40
2019-02-07T01:22:49.679Z,33.23
2019-02-07T01:25:20.356Z,33.70
2019-02-07T01:27:49.013Z,34.13
2019-02-07T01:30:22.835Z,34.30
2019-02-07T01:32:51.245Z,33.55
2019-02-07T01:35:19.643Z,33.83
2019-02-07T01:37:48.085Z,35.92
2019-02-07T01:40:18.372Z,35.05
2019-02-07T01:42:46.846Z,35.52
2019-02-07T01:45:18.466Z,35.98
2019-02-07T01:47:46.957Z,35.95
2019-02-07T01:50:17.599Z,36.10
2019-02-07T01:52:46.452Z,37.47
2019-02-07T01:55:15.612Z,37.25
2019-02-07T01:57:44.695Z,36.75
2019-02-07T02:00:18.076Z,36.95
2019-02-07T02:02:46.927Z,35.63
2019-02-07T02:05:17.166Z,35.48
2019-02-07T02:07:46.116Z,36.10
2019-02-07T02:10:20.140Z,35.10
2019-02-07T02:12:48.787Z,35.27
2019-02-07T02:15:24.716Z,35.60
2019-02-07T02:17:50.039Z,35.33
2019-02-07T02:20:23.077Z,36.28
2019-02-07T02:22:52.327Z,36.20
2019-02-07T02:25:21.030Z,36.75
2019-02-07T02:27:49.583Z,36.83
2019-02-07T02:30:27.150Z,36.30
2019-02-07T02:32:55.645Z,35.70
2019-02-07T02:35:24.433Z,35.33
2019-02-07T02:37:52.840Z,37.03
2019-02-07T02:40:21.259Z,36.33
2019-02-07T02:42:49.840Z,34.70
2019-02-07T02:45:23.047Z,33.88
2019-02-07T02:47:51.779Z,36.60
2019-02-07T02:50:21.435Z,36.77
2019-02-07T02:52:49.905Z,36.30
2019-02-07T02:55:28.983Z,36.00
2019-02-07T02:57:57.382Z,37.15
2019-02-07T03:00:29.929Z,36.65
2019-02-07T03:03:18.412Z,37.40
2019-02-07T03:05:48.470Z,37.20
2019-02-07T03:08:21.567Z,38.40
2019-02-07T03:10:51.606Z,37.28
2019-02-07T03:13:21.674Z,38.60
2019-02-07T03:16:00.913Z,38.15
2019-02-07T03:18:47.327Z,39.03
2019-02-07T03:21:20.747Z,39.40
2019-02-07T03:24:05.867Z,38.90
2019-02-07T03:26:35.907Z,39.48
2019-02-07T03:29:06.427Z,38.25
2019-02-07T03:31:42.800Z,38.20
2019-02-07T03:34:27.884Z,37.93
2019-02-07T03:37:12.598Z,36.23
2019-02-07T03:39:42.936Z,37.50
2019-02-07T03:42:29.471Z,36.23
2019-02-07T03:44:59.529Z,35.35
2019-02-07T03:47:32.041Z,33.48
2019-02-07T03:50:20.760Z,31.70
2019-02-07T03:52:53.255Z,33.25
2019-02-07T03:55:23.312Z,33.45
2019-02-07T03:57:59.367Z,32.50
2019-02-07T04:00:38.258Z,34.60
2019-02-07T04:03:13.997Z,34.13
2019-02-07T04:05:49.912Z,31.48
2019-02-07T04:08:37.040Z,32.67
2019-02-07T04:11:10.255Z,33.02
2019-02-07T04:13:40.307Z,33.78
2019-02-07T04:16:15.294Z,33.63
2019-02-07T04:18:42.151Z,33.70
2019-02-07T04:21:12.207Z,32.42
2019-02-07T04:23:56.983Z,32.70
2019-02-07T04:26:43.243Z,33.50
2019-02-07T04:29:13.356Z,32.60
2019-02-07T04:31:43.417Z,33.05
2019-02-07T04:34:29.774Z,33.63
2019-02-07T04:37:02.881Z,32.30
2019-02-07T04:39:48.192Z,30.52
2019-02-07T04:42:33.585Z,31.75
2019-02-07T04:45:19.235Z,31.75
2019-02-07T04:47:55.182Z,29.30
2019-02-07T04:50:41.783Z,30.37
2019-02-07T04:53:30.194Z,28.43
2019-02-07T04:56:18.387Z,28.70
2019-02-07T04:59:03.984Z,30.00
2019-02-07T05:01:50.579Z,27.85
2019-02-07T05:04:23.595Z,26.48
2019-02-07T05:07:02.899Z,27.37
2019-02-07T05:09:33.015Z,26.62
2019-02-07T05:12:06.203Z,27.15
2019-02-07T05:14:45.190Z,26.35
2019-02-07T05:17:21.264Z,26.97
2019-02-07T05:19:57.215Z,28.23
2019-02-07T05:22:27.302Z,26.57
2019-02-07T05:25:00.041Z,28.25
2019-02-07T05:27:30.107Z,26.02
2019-02-07T05:30:09.183Z,26.27
2019-02-07T05:32:55.648Z,25.30
2019-02-07T05:35:32.188Z,25.52
2019-02-07T05:38:05.156Z,24.45
2019-02-07T05:40:47.257Z,26.50
2019-02-07T05:43:20.118Z,24.52
2019-02-07T05:46:05.395Z,24.02
2019-02-07T05:48:40.869Z,24.05
2019-02-07T05:51:13.677Z,24.20
2019-02-07T05:53:46.615Z,23.53
2019-02-07T05:56:17.159Z,23.05
2019-02-07T05:58:58.938Z,23.75
2019-02-07T06:01:37.092Z,23.02
2019-02-07T06:04:13.251Z,22.55
2019-02-07T06:06:55.636Z,22.40
2019-02-07T06:09:37.764Z,23.27
2019-02-07T06:12:13.496Z,22.48
2019-02-07T06:14:46.525Z,23.43
2019-02-07T06:17:19.265Z,21.55
2019-02-07T06:19:52.332Z,21.30
2019-02-07T06:22:34.337Z,22.27
2019-02-07T06:25:13.530Z,22.05
2019-02-07T06:27:49.623Z,22.48
2019-02-07T06:30:20.071Z,22.10
2019-02-07T06:33:05.468Z,22.07
2019-02-07T06:35:55.284Z,21.52
2019-02-07T06:38:34.606Z,20.50
2019-02-07T06:41:05.020Z,20.12
2019-02-07T06:43:44.043Z,19.40
2019-02-07T06:46:14.096Z,20.50
2019-02-07T06:48:58.857Z,20.00
2019-02-07T06:51:40.912Z,19.63
2019-02-07T06:54:13.921Z,19.25
2019-02-07T06:56:59.020Z,19.97
2019-02-07T06:59:29.304Z,20.00
2019-02-07T07:01:59.392Z,19.05
2019-02-07T07:04:47.543Z,20.70
2019-02-07T07:07:35.815Z,19.70
2019-02-07T07:10:27.252Z,19.30
2019-02-07T07:13:03.052Z,21.27
2019-02-07T07:15:47.889Z,21.15
2019-02-07T07:18:32.631Z,18.87
2019-02-07T07:21:08.671Z,22.13
2019-02-07T07:23:47.516Z,20.15
2019-02-07T07:26:33.976Z,22.17
2019-02-07T07:29:19.307Z,20.60
2019-02-07T07:32:05.653Z,21.17
2019-02-07T07:34:52.055Z,21.42
2019-02-07T07:37:25.261Z,20.25
2019-02-07T07:40:11.431Z,23.60
2019-02-07T07:42:44.243Z,21.02
2019-02-07T07:45:29.440Z,20.15
2019-02-07T07:48:02.335Z,19.60
2019-02-07T07:50:38.116Z,20.68
2019-02-07T07:53:08.191Z,21.45
2019-02-07T07:55:53.256Z,19.50
2019-02-07T07:58:39.777Z,20.35
2019-02-07T08:01:15.859Z,19.90
2019-02-07T08:03:45.929Z,20.55
2019-02-07T08:06:18.870Z,19.37
2019-02-07T08:09:03.784Z,18.13
2019-02-07T08:11:36.542Z,20.27
2019-02-07T08:14:23.612Z,18.90
2019-02-07T08:17:09.026Z,19.67
2019-02-07T08:19:42.384Z,19.82
2019-02-07T08:22:28.776Z,19.30
2019-02-07T08:25:15.420Z,18.75
2019-02-07T08:27:45.576Z,18.73
2019-02-07T08:30:36.444Z,18.92
2019-02-07T08:33:19.379Z,17.80
2019-02-07T08:36:01.469Z,18.60
2019-02-07T08:38:43.489Z,18.27
2019-02-07T08:41:16.555Z,17.92
2019-02-07T08:43:59.075Z,17.37
2019-02-07T08:46:31.862Z,17.30
2019-02-07T08:49:03.077Z,17.00
2019-02-07T08:51:48.364Z,17.52
2019-02-07T08:54:34.556Z,18.10
2019-02-07T08:57:21.169Z,17.82
2019-02-07T08:59:57.324Z,17.80
2019-02-07T09:02:27.440Z,18.50
2019-02-07T09:04:57.679Z,18.80
2019-02-07T09:07:32.312Z,18.73
2019-02-07T09:10:17.307Z,19.55
2019-02-07T09:12:50.825Z,19.75
2019-02-07T09:15:24.643Z,18.52
2019-02-07T09:18:09.788Z,19.90
2019-02-07T09:20:49.168Z,19.45
2019-02-07T09:23:25.387Z,18.23
2019-02-07T09:25:58.473Z,18.98
2019-02-07T09:28:31.486Z,19.17
2019-02-07T09:31:37.732Z,18.73
2019-02-07T09:34:10.754Z,18.23
2019-02-07T09:36:47.099Z,18.27
2019-02-07T09:39:20.173Z,18.82
2019-02-07T09:42:06.747Z,19.10
2019-02-07T09:44:53.355Z,18.95
2019-02-07T09:47:40.028Z,18.20
2019-02-07T09:50:11.316Z,18.85
2019-02-07T09:52:53.638Z,17.92
2019-02-07T09:55:26.653Z,17.50
2019-02-07T09:58:13.242Z,18.27
2019-02-07T10:00:59.757Z,17.75
2019-02-07T10:03:46.423Z,18.57
2019-02-07T10:06:16.472Z,17.70
2019-02-07T10:08:55.578Z,18.15
2019-02-07T10:11:31.621Z,19.17
2019-02-07T10:14:11.461Z,17.52
2019-02-07T10:16:41.908Z,18.45
2019-02-07T10:19:14.674Z,18.67
2019-02-07T10:21:50.247Z,19.67
2019-02-07T10:24:36.532Z,17.10
2019-02-07T10:27:23.684Z,19.13
2019-02-07T10:29:53.723Z,17.98
2019-02-07T10:32:39.184Z,18.85
2019-02-07T10:35:22.605Z,18.70
2019-02-07T10:37:47.737Z,19.20
2019-02-07T10:40:17.928Z,17.60
2019-02-07T10:42:48.045Z,17.30
2019-02-07T10:45:34.644Z,18.10
2019-02-07T10:48:18.634Z,17.57
2019-02-07T10:50:48.668Z,17.20
2019-02-07T10:53:24.479Z,17.50
2019-02-07T10:55:54.551Z,17.75
2019-02-07T10:58:25.574Z,19.62
2019-02-07T11:00:55.748Z,19.52
2019-02-07T11:03:41.132Z,19.00
2019-02-07T11:06:27.735Z,19.90
2019-02-07T11:09:14.311Z,18.57
2019-02-07T11:11:44.347Z,19.15
2019-02-07T11:14:14.407Z,18.33
2019-02-07T11:17:00.677Z,18.52
2019-02-07T11:19:36.874Z,18.73
2019-02-07T11:22:23.106Z,19.20
2019-02-07T11:24:53.329Z,19.60
2019-02-07T11:27:29.336Z,19.57
2019-02-07T11:29:59.390Z,19.07
2019-02-07T11:32:32.338Z,18.55
2019-02-07T11:35:11.252Z,20.17
2019-02-07T11:37:53.335Z,18.85
2019-02-07T11:40:26.132Z,19.50
2019-02-07T11:43:12.764Z,19.90
2019-02-07T11:45:48.888Z,19.57
2019-02-07T11:48:21.883Z,19.17
2019-02-07T11:50:51.947Z,20.97
2019-02-07T11:53:33.689Z,20.88
2019-02-07T11:56:16.114Z,22.75
2019-02-07T11:58:52.349Z,21.77
2019-02-07T12:01:28.269Z,19.12
2019-02-07T12:04:01.200Z,19.82
2019-02-07T12:06:31.258Z,19.10
2019-02-07T12:09:16.215Z,20.40
2019-02-07T12:12:02.532Z,20.40
2019-02-07T12:14:35.528Z,19.73
2019-02-07T12:17:23.019Z,18.57
2019-02-07T12:20:03.267Z,19.82
2019-02-07T12:22:42.486Z,19.02
2019-02-07T12:25:15.842Z,18.35
2019-02-07T12:28:02.414Z,18.23
2019-02-07T12:30:32.544Z,17.62
2019-02-07T12:33:05.049Z,19.42
2019-02-07T12:35:37.863Z,18.42
2019-02-07T12:38:07.912Z,17.10
2019-02-07T12:40:38.003Z,19.30
2019-02-07T12:43:14.130Z,16.00
2019-02-07T12:46:00.676Z,15.58
2019-02-07T12:48:46.607Z,14.70
2019-02-07T12:51:16.707Z,14.98
2019-02-07T12:53:56.151Z,13.40
2019-02-07T12:56:28.868Z,13.10
2019-02-07T12:59:08.115Z,13.83
2019-02-07T13:01:40.885Z,12.68
2019-02-07T13:04:12.993Z,13.20
2019-02-07T13:06:45.747Z,12.68
2019-02-07T13:09:26.640Z,13.10
2019-02-07T13:11:56.700Z,12.95
2019-02-07T13:14:32.957Z,13.18
2019-02-07T13:17:03.056Z,13.38
2019-02-07T13:19:40.188Z,13.08
2019-02-07T13:22:22.989Z,12.50
2019-02-07T13:24:53.062Z,13.05
2019-02-07T13:27:25.900Z,11.93
2019-02-07T13:29:56.081Z,11.93
2019-02-07T13:32:35.124Z,12.20
2019-02-07T13:35:26.416Z,12.33
2019-02-07T13:37:56.516Z,12.98
2019-02-07T13:40:26.624Z,11.73
2019-02-07T13:43:11.919Z,12.70
2019-02-07T13:45:50.693Z,12.78
2019-02-07T13:48:20.744Z,11.80
2019-02-07T13:51:08.925Z,11.28
2019-02-07T13:53:48.173Z,8.70
2019-02-07T13:56:30.358Z,8.20
2019-02-07T13:59:09.272Z,7.60
2019-02-07T14:01:51.444Z,6.50
2019-02-07T14:04:21.483Z,5.30
2019-02-07T14:07:07.887Z,4.85
2019-02-07T14:09:41.207Z,4.22
2019-02-07T14:12:11.344Z,6.30
2019-02-07T14:14:47.239Z,6.22
2019-02-07T14:17:17.311Z,5.08
2019-02-07T14:20:03.289Z,5.53
2019-02-07T14:22:43.195Z,4.62
2019-02-07T14:25:13.487Z,5.17
2019-02-07T14:27:43.556Z,4.50
2019-02-07T14:30:20.650Z,5.20
2019-02-07T14:32:50.707Z,5.20
2019-02-07T14:35:26.884Z,6.12
2019-02-07T14:37:57.002Z,6.53
2019-02-07T14:40:30.389Z,6.50
2019-02-07T14:43:06.500Z,6.30
2019-02-07T14:45:36.615Z,5.95
2019-02-07T14:48:05.400Z,5.50
2019-02-07T14:50:33.818Z,5.30
2019-02-07T14:53:02.689Z,5.97
2019-02-07T14:55:31.128Z,5.85
2019-02-07T14:57:59.553Z,6.22
2019-02-07T15:00:28.754Z,5.23
2019-02-07T15:02:57.155Z,6.10
2019-02-07T15:05:25.580Z,5.28
2019-02-07T15:07:54.052Z,5.60
2019-02-07T15:10:22.736Z,8.25
2019-02-07T15:12:51.160Z,7.20
2019-02-07T15:15:21.477Z,5.92
2019-02-07T15:17:49.955Z,5.22
2019-02-07T15:20:25.878Z,4.30
2019-02-07T15:22:48.823Z,4.30
2019-02-07T15:25:17.612Z,4.30
2019-02-07T15:27:46.012Z,5.62
2019-02-07T15:30:19.571Z,4.90
2019-02-07T15:32:48.381Z,5.50
2019-02-07T15:35:23.109Z,5.78
2019-02-07T15:37:51.526Z,5.53
2019-02-07T15:40:25.705Z,4.50
2019-02-07T15:42:55.185Z,6.23
2019-02-07T15:45:24.144Z,9.00
2019-02-07T15:47:52.544Z,9.03
2019-02-07T15:50:23.266Z,9.93
2019-02-07T15:52:53.679Z,12.03
2019-02-07T15:55:22.173Z,8.78
2019-02-07T15:57:50.648Z,7.40
2019-02-07T16:00:43.356Z,9.13
2019-02-07T16:03:13.780Z,11.85
2019-02-07T16:05:42.205Z,23.95
2019-02-07T16:08:10.630Z,16.62
2019-02-07T16:10:39.035Z,7.25
2019-02-07T16:13:07.428Z,7.85
2019-02-07T16:15:36.115Z,5.75
2019-02-07T16:18:05.261Z,5.90
2019-02-07T16:20:33.679Z,6.33
2019-02-07T16:23:02.073Z,6.55
2019-02-07T16:25:30.493Z,6.90
2019-02-07T16:27:58.911Z,6.85
2019-02-07T16:30:27.306Z,8.10
2019-02-07T16:32:55.712Z,8.50
2019-02-07T16:35:24.388Z,5.30
2019-02-07T16:37:53.135Z,5.50
2019-02-07T16:40:23.132Z,6.50
2019-02-07T16:42:51.709Z,8.23
2019-02-07T16:45:27.123Z,7.70
2019-02-07T16:47:55.541Z,5.90
2019-02-07T16:50:32.177Z,5.67
2019-02-07T16:53:01.646Z,6.87
2019-02-07T16:55:30.703Z,6.00
2019-02-07T16:57:59.174Z,5.63
2019-02-07T17:00:29.514Z,7.97
2019-02-07T17:02:58.442Z,7.53
2019-02-07T17:05:27.834Z,6.00
2019-02-07T17:07:56.300Z,8.90
2019-02-07T17:10:33.937Z,7.22
2019-02-07T17:13:02.965Z,7.70
2019-02-07T17:15:31.556Z,8.13
2019-02-07T17:17:59.999Z,9.38
2019-02-07T17:20:30.356Z,10.63
2019-02-07T17:22:58.847Z,8.90
2019-02-07T17:25:29.283Z,9.15
2019-02-07T17:27:57.775Z,7.80
2019-02-07T17:30:27.161Z,9.00
2019-02-07T17:32:55.565Z,9.10
2019-02-07T17:35:24.232Z,10.32
2019-02-07T17:37:52.789Z,7.40
2019-02-07T17:40:23.288Z,7.80
2019-02-07T17:42:51.709Z,7.78
2019-02-07T17:45:23.188Z,8.40
2019-02-07T17:47:52.860Z,13.18
2019-02-07T17:50:23.688Z,8.88
2019-02-07T17:52:52.189Z,8.60
2019-02-07T17:55:22.829Z,6.70
2019-02-07T17:57:51.422Z,5.33
2019-02-07T18:00:33.029Z,8.85
2019-02-07T18:03:02.083Z,8.63
2019-02-07T18:05:30.634Z,8.03
2019-02-07T18:07:59.116Z,5.93
2019-02-07T18:10:28.709Z,6.37
2019-02-07T18:12:57.375Z,6.10
2019-02-07T18:15:26.496Z,5.67
2019-02-07T18:17:54.912Z,5.03
2019-02-07T18:20:24.241Z,6.70
2019-02-07T18:22:52.669Z,5.30
2019-02-07T18:25:21.143Z,4.70
2019-02-07T18:27:49.552Z,4.50
2019-02-07T18:30:21.048Z,4.12
2019-02-07T18:32:49.579Z,4.80
2019-02-07T18:35:19.124Z,5.00
2019-02-07T18:37:47.606Z,4.55
2019-02-07T18:40:21.871Z,5.37
2019-02-07T18:42:50.280Z,4.72
2019-02-07T18:45:21.120Z,5.10
2019-02-07T18:47:49.524Z,6.20
2019-02-07T18:50:21.059Z,5.50
2019-02-07T18:52:49.584Z,5.00
2019-02-07T18:55:18.272Z,4.72
2019-02-07T18:57:46.672Z,4.80
2019-02-07T19:00:18.165Z,4.97
2019-02-07T19:02:46.580Z,4.05
2019-02-07T19:05:17.624Z,4.95
2019-02-07T19:07:46.192Z,4.05
2019-02-07T19:10:26.270Z,4.72
2019-02-07T19:12:54.677Z,4.50
2019-02-07T19:15:32.380Z,4.20
2019-02-07T19:18:00.793Z,4.03
2019-02-07T19:20:29.196Z,4.15
2019-02-07T19:22:57.584Z,3.85
2019-02-07T19:25:26.080Z,4.42
2019-02-07T19:27:55.132Z,4.55
2019-02-07T19:30:26.350Z,4.20
2019-02-07T19:32:55.379Z,3.70
2019-02-07T19:35:23.848Z,4.05
2019-02-07T19:37:52.415Z,4.30
2019-02-07T19:40:22.176Z,4.50
2019-02-07T19:42:50.571Z,4.90
2019-02-07T19:45:26.619Z,4.30
2019-02-07T19:47:55.019Z,4.40
2019-02-07T19:50:29.770Z,3.83
2019-02-07T19:52:58.211Z,4.20
2019-02-07T19:55:29.624Z,4.50
2019-02-07T19:57:58.380Z,4.30
2019-02-07T20:00:33.988Z,4.45
2019-02-07T20:03:02.414Z,3.90
2019-02-07T20:05:31.054Z,4.90
2019-02-07T20:07:59.615Z,4.03
2019-02-07T20:10:29.731Z,3.80
2019-02-07T20:12:58.964Z,3.20
2019-02-07T20:15:29.814Z,4.17
2019-02-07T20:18:00.066Z,4.00
2019-02-07T20:20:28.565Z,3.60
2019-02-07T20:22:57.048Z,3.10
2019-02-07T20:25:25.708Z,3.50
2019-02-07T20:27:54.111Z,3.30
2019-02-07T20:30:30.627Z,4.60
2019-02-07T20:32:59.180Z,4.10
2019-02-07T20:35:27.576Z,5.30
2019-02-07T20:37:56.247Z,4.60
2019-02-07T20:40:29.133Z,4.30
2019-02-07T20:42:57.635Z,4.50
2019-02-07T20:45:26.024Z,3.60
2019-02-07T20:47:54.434Z,3.58
2019-02-07T20:50:27.668Z,3.55
2019-02-07T20:52:56.608Z,3.80
2019-02-07T20:55:26.049Z,4.05
2019-02-07T20:57:55.687Z,3.80
2019-02-07T21:00:32.787Z,3.70
2019-02-07T21:03:01.280Z,3.65
2019-02-07T21:05:31.147Z,3.60
2019-02-07T21:07:59.903Z,3.08
2019-02-07T21:10:37.174Z,3.83
2019-02-07T21:13:06.505Z,3.20
2019-02-07T21:15:35.742Z,3.00
2019-02-07T21:18:04.795Z,3.17
2019-02-07T21:20:33.339Z,4.23
2019-02-07T21:23:01.972Z,3.80
2019-02-07T21:25:42.331Z,3.70
2019-02-07T21:28:11.016Z,3.33
2019-02-07T21:30:39.415Z,3.15
2019-02-07T21:33:08.840Z,3.52
2019-02-07T21:35:37.253Z,3.15
2019-02-07T21:38:06.924Z,3.62
2019-02-07T21:40:35.886Z,2.80
2019-02-07T21:43:05.029Z,3.00
2019-02-07T21:45:33.718Z,3.50
2019-02-07T21:48:02.189Z,3.40
2019-02-07T21:50:33.538Z,3.50
2019-02-07T21:53:02.167Z,3.80
2019-02-07T21:55:32.238Z,51.20
2019-02-07T21:58:00.640Z,4.30
2019-02-07T22:00:37.759Z,3.92
2019-02-07T22:03:13.447Z,3.70
2019-02-07T22:05:42.272Z,3.90
2019-02-07T22:08:10.841Z,4.00
2019-02-07T22:10:39.426Z,3.87
2019-02-07T22:13:08.154Z,4.05
2019-02-07T22:15:36.747Z,4.50
2019-02-07T22:18:05.779Z,3.70
2019-02-07T22:20:34.203Z,4.00
2019-02-07T22:23:02.653Z,3.62
2019-02-07T22:25:31.083Z,3.95
2019-02-07T22:27:59.495Z,4.30
2019-02-07T22:30:33.333Z,4.03
2019-02-07T22:33:01.907Z,4.80
2019-02-07T22:35:30.747Z,4.10
2019-02-07T22:37:59.223Z,4.00
2019-02-07T22:40:27.628Z,3.60
2019-02-07T22:42:56.370Z,4.03
2019-02-07T22:45:26.395Z,3.70
2019-02-07T22:47:54.976Z,4.00
2019-02-07T22:50:25.557Z,3.92
2019-02-07T22:52:57.152Z,4.40
2019-02-07T22:55:24.582Z,5.20
2019-02-07T22:57:52.979Z,4.20
2019-02-07T23:00:38.034Z,4.30
2019-02-07T23:03:17.507Z,4.30
2019-02-07T23:05:45.908Z,4.28
2019-02-07T23:08:14.435Z,4.00
2019-02-07T23:10:43.295Z,4.20
2019-02-07T23:13:12.331Z,4.00
2019-02-07T23:15:40.747Z,3.87
2019-02-07T23:18:09.222Z,3.60
2019-02-07T23:20:37.693Z,4.30
2019-02-07T23:23:10.515Z,3.70
2019-02-07T23:25:39.302Z,3.45
2019-02-07T23:28:08.284Z,3.75
2019-02-07T23:30:36.958Z,3.80
2019-02-07T23:33:06.203Z,3.58
2019-02-07T23:35:34.601Z,3.80
2019-02-07T23:38:03.010Z,3.70
2019-02-07T23:40:31.416Z,4.10
2019-02-07T23:43:00.098Z,3.80
2019-02-07T23:45:28.949Z,3.40
2019-02-07T23:47:57.419Z,3.55
2019-02-07T23:50:25.983Z,3.50
2019-02-07T23:52:54.394Z,3.70
2019-02-07T23:55:23.095Z,3.87
2019-02-07T23:57:51.537Z,3.30
